Time;durP1;ratioP1;P1;durP2;ratioP2;P2;SDS_P1;SDS_P2;PMS_P1;PMS_P2;Temp;Humidity;BMP_temperature;BMP_pressure;BME280_temperature;BME280_humidity;BME280_pressure;Samples;Min_cycle;Max_cycle;Signal;HPM_P1;HPM_P2
2023/12/28 00:02:07;;;;;;;5.32;2.53;;;;;;;;;;5030335;28;20746;-65
2023/12/28 00:04:34;;;;;;;5.63;2.70;;;;;;;;;;5030792;28;20122;-65
2023/12/28 00:07:00;;;;;;;3.95;2.28;;;;;;;;;;5031412;28;20275;-65
2023/12/28 00:09:25;;;;;;;3.95;2.35;;;;;;;;;;5030605;28;20457;-65
2023/12/28 00:11:50;;;;;;;5.18;2.55;;;;;;;;;;5030320;28;20030;-65
2023/12/28 00:14:15;;;;;;;7.90;2.57;;;;;;;;;;5031269;28;20053;-65
2023/12/28 00:16:41;;;;;;;4.18;2.40;;;;;;;;;;5028231;28;20292;-65
2023/12/28 00:19:06;;;;;;;3.97;2.13;;;;;;;;;;5030341;28;20107;-65
2023/12/28 00:21:32;;;;;;;5.18;2.30;;;;;;;;;;5030126;28;20372;-65
2023/12/28 00:23:57;;;;;;;6.07;2.30;;;;;;;;;;5030354;28;20030;-65
2023/12/28 00:26:22;;;;;;;3.85;2.03;;;;;;;;;;5032857;28;20255;-65
2023/12/28 00:28:48;;;;;;;8.07;2.85;;;;;;;;;;5032703;28;20045;-65
2023/12/28 00:31:13;;;;;;;5.53;2.58;;;;;;;;;;5033061;28;20021;-65
2023/12/28 00:33:38;;;;;;;5.60;2.40;;;;;;;;;;5032821;28;20024;-65
2023/12/28 00:36:03;;;;;;;3.20;2.03;;;;;;;;;;5032798;28;20381;-65
2023/12/28 00:38:29;;;;;;;6.80;2.35;;;;;;;;;;5032735;28;20798;-65
2023/12/28 00:40:54;;;;;;;6.67;2.57;;;;;;;;;;5032775;28;20022;-65
2023/12/28 00:43:19;;;;;;;7.80;2.50;;;;;;;;;;5032742;28;20250;-65
2023/12/28 00:45:44;;;;;;;3.15;2.28;;;;;;;;;;5032571;28;20619;-67
2023/12/28 00:48:09;;;;;;;7.07;2.77;;;;;;;;;;5032575;28;20026;-67
2023/12/28 00:50:35;;;;;;;3.97;1.93;;;;;;;;;;5035851;28;20258;-67
2023/12/28 00:53:00;;;;;;;2.75;1.90;;;;;;;;;;5036519;28;20049;-67
2023/12/28 00:55:25;;;;;;;5.27;2.30;;;;;;;;;;5035208;28;20539;-67
2023/12/28 00:57:50;;;;;;;7.37;2.33;;;;;;;;;;5034529;28;20892;-67
2023/12/28 01:00:16;;;;;;;6.03;2.63;;;;;;;;;;5033512;28;20861;-67
2023/12/28 01:02:41;;;;;;;3.47;1.93;;;;;;;;;;5034246;28;20289;-67
2023/12/28 01:05:06;;;;;;;4.40;2.38;;;;;;;;;;5033328;28;20270;-66
2023/12/28 01:07:31;;;;;;;3.55;1.90;;;;;;;;;;5034024;28;20029;-67
2023/12/28 01:09:57;;;;;;;7.97;2.00;;;;;;;;;;5033490;28;20049;-67
2023/12/28 01:12:22;;;;;;;4.03;2.40;;;;;;;;;;5033151;28;20350;-67
2023/12/28 01:14:47;;;;;;;5.40;2.30;;;;;;;;;;5032768;28;20318;-67
2023/12/28 01:17:12;;;;;;;2.93;1.50;;;;;;;;;;5033948;28;20274;-67
2023/12/28 01:19:38;;;;;;;4.13;2.25;;;;;;;;;;5033545;28;20282;-67
2023/12/28 01:22:03;;;;;;;3.53;1.88;;;;;;;;;;5032848;28;20032;-67
2023/12/28 01:24:28;;;;;;;3.53;2.33;;;;;;;;;;5032935;28;20351;-67
2023/12/28 01:26:54;;;;;;;4.57;2.10;;;;;;;;;;5032613;28;20452;-67
2023/12/28 01:29:19;;;;;;;4.55;1.88;;;;;;;;;;5033447;28;20032;-67
2023/12/28 01:31:44;;;;;;;5.13;2.13;;;;;;;;;;5031748;28;20021;-67
2023/12/28 01:34:09;;;;;;;5.55;2.38;;;;;;;;;;5031738;28;20028;-67
2023/12/28 01:36:35;;;;;;;2.85;1.80;;;;;;;;;;5032324;28;20075;-67
2023/12/28 01:39:00;;;;;;;3.47;2.15;;;;;;;;;;5031627;28;20034;-67
2023/12/28 01:41:25;;;;;;;3.20;1.90;;;;;;;;;;5032252;28;20036;-67
2023/12/28 01:43:50;;;;;;;3.97;2.20;;;;;;;;;;5031590;28;20104;-67
2023/12/28 01:46:20;;;;;;;8.63;2.03;;;;;;;;;;5032352;28;20030;-67
2023/12/28 01:48:48;;;;;;;10.25;1.90;;;;;;;;;;5032560;28;20078;-67
2023/12/28 01:51:14;;;;;;;5.03;1.80;;;;;;;;;;5031599;28;20025;-67
2023/12/28 01:53:39;;;;;;;3.17;1.77;;;;;;;;;;5032253;28;20017;-68
2023/12/28 01:56:05;;;;;;;3.40;1.55;;;;;;;;;;5031632;28;20029;-67
2023/12/28 01:58:32;;;;;;;2.50;1.77;;;;;;;;;;5031535;28;20026;-67
2023/12/28 02:00:58;;;;;;;4.20;2.00;;;;;;;;;;5030534;28;20036;-67
2023/12/28 02:03:23;;;;;;;4.27;2.10;;;;;;;;;;5032481;28;20466;-67
2023/12/28 02:05:48;;;;;;;5.18;1.88;;;;;;;;;;5032418;28;20263;-67
2023/12/28 02:08:13;;;;;;;2.75;1.75;;;;;;;;;;5032909;28;20029;-67
2023/12/28 02:10:39;;;;;;;2.83;1.97;;;;;;;;;;5032056;28;20020;-67
2023/12/28 02:13:04;;;;;;;3.92;1.85;;;;;;;;;;5031992;28;20270;-67
2023/12/28 02:15:29;;;;;;;4.18;2.10;;;;;;;;;;5032019;28;20053;-67
2023/12/28 02:18:02;;;;;;;4.60;2.20;;;;;;;;;;5031902;28;20033;-67
2023/12/28 02:20:29;;;;;;;4.57;1.80;;;;;;;;;;5032387;28;20758;-67
2023/12/28 02:22:55;;;;;;;3.85;1.83;;;;;;;;;;5032233;28;20491;-67
2023/12/28 02:25:20;;;;;;;4.75;1.83;;;;;;;;;;5032593;28;20017;-68
2023/12/28 02:27:46;;;;;;;5.33;1.80;;;;;;;;;;5032627;28;20026;-67
2023/12/28 02:30:13;;;;;;;4.38;2.13;;;;;;;;;;5033009;28;20255;-68
2023/12/28 02:32:57;;;;;;;2.90;1.77;;;;;;;;;;5033627;28;20343;-68
2023/12/28 02:35:31;;;;;;;6.78;2.08;;;;;;;;;;5031603;28;20024;-67
2023/12/28 02:37:59;;;;;;;3.50;1.83;;;;;;;;;;5032593;28;20096;-67
2023/12/28 02:40:25;;;;;;;4.53;1.90;;;;;;;;;;5030635;28;20030;-67
2023/12/28 02:42:50;;;;;;;3.33;1.67;;;;;;;;;;5032563;28;20048;-67
2023/12/28 02:45:15;;;;;;;5.53;2.20;;;;;;;;;;5032397;28;20075;-67
2023/12/28 02:47:40;;;;;;;6.65;2.05;;;;;;;;;;5031546;28;20037;-67
2023/12/28 02:50:06;;;;;;;6.07;2.10;;;;;;;;;;5031847;28;20041;-68
2023/12/28 02:52:31;;;;;;;2.10;1.52;;;;;;;;;;5032429;28;20251;-67
2023/12/28 02:54:57;;;;;;;3.63;2.10;;;;;;;;;;5031991;28;20017;-67
2023/12/28 02:57:22;;;;;;;3.17;1.73;;;;;;;;;;5032265;28;20260;-67
2023/12/28 02:59:47;;;;;;;2.93;2.10;;;;;;;;;;5032058;28;20036;-67
2023/12/28 03:02:12;;;;;;;3.70;2.05;;;;;;;;;;5031745;28;20267;-67
2023/12/28 03:04:37;;;;;;;4.43;2.07;;;;;;;;;;5030169;28;20116;-67
2023/12/28 03:07:04;;;;;;;4.70;2.47;;;;;;;;;;5031900;28;20361;-64
2023/12/28 03:09:29;;;;;;;5.68;2.30;;;;;;;;;;5030233;28;20270;-65
2023/12/28 03:11:54;;;;;;;3.40;2.40;;;;;;;;;;5031830;28;20416;-65
2023/12/28 03:14:21;;;;;;;5.90;2.07;;;;;;;;;;5031535;28;20764;-64
2023/12/28 03:16:46;;;;;;;4.82;2.58;;;;;;;;;;5029745;28;20820;-64
2023/12/28 03:19:11;;;;;;;5.40;2.30;;;;;;;;;;5031800;28;20053;-65
2023/12/28 03:21:40;;;;;;;4.67;2.60;;;;;;;;;;5032236;28;20033;-65
2023/12/28 03:24:05;;;;;;;5.10;2.42;;;;;;;;;;5031421;28;20271;-64
2023/12/28 03:26:30;;;;;;;5.22;2.30;;;;;;;;;;5031617;28;20036;-65
2023/12/28 03:28:56;;;;;;;5.60;2.88;;;;;;;;;;5031530;28;20024;-64
2023/12/28 03:31:21;;;;;;;5.57;2.53;;;;;;;;;;5030661;28;20108;-64
2023/12/28 03:33:46;;;;;;;4.63;2.40;;;;;;;;;;5032364;28;20294;-64
2023/12/28 03:36:21;;;;;;;5.22;2.33;;;;;;;;;;5032603;28;20029;-65
2023/12/28 03:38:46;;;;;;;2.88;2.20;;;;;;;;;;5030443;28;20520;-64
2023/12/28 03:41:18;;;;;;;4.28;2.38;;;;;;;;;;5030719;28;20017;-64
2023/12/28 03:43:43;;;;;;;3.55;2.47;;;;;;;;;;5030471;28;20026;-65
2023/12/28 03:46:09;;;;;;;7.20;2.60;;;;;;;;;;5031440;28;20041;-65
2023/12/28 03:48:35;;;;;;;4.10;2.60;;;;;;;;;;5030415;28;20309;-65
2023/12/28 03:51:01;;;;;;;4.25;2.45;;;;;;;;;;5031693;28;20378;-64
2023/12/28 03:53:26;;;;;;;6.80;3.07;;;;;;;;;;5030637;28;20026;-65
2023/12/28 03:55:51;;;;;;;4.97;2.73;;;;;;;;;;5030658;28;20267;-64
2023/12/28 03:58:16;;;;;;;5.38;2.50;;;;;;;;;;5031500;28;20274;-64
2023/12/28 04:00:41;;;;;;;4.80;2.67;;;;;;;;;;5030524;28;20425;-65
2023/12/28 04:03:07;;;;;;;5.60;2.77;;;;;;;;;;5031379;28;20017;-64
2023/12/28 04:05:32;;;;;;;6.63;2.50;;;;;;;;;;5031320;28;20258;-64
2023/12/28 04:07:57;;;;;;;7.17;3.27;;;;;;;;;;5029515;28;20282;-65
2023/12/28 04:10:30;;;;;;;4.83;2.40;;;;;;;;;;5031455;28;20267;-64
2023/12/28 04:12:57;;;;;;;7.25;2.75;;;;;;;;;;5031700;28;20309;-65
2023/12/28 04:15:22;;;;;;;5.97;2.63;;;;;;;;;;5031364;28;20128;-67
2023/12/28 04:17:47;;;;;;;4.13;2.90;;;;;;;;;;5032954;28;20434;-67
2023/12/28 04:20:13;;;;;;;3.80;2.60;;;;;;;;;;5032826;28;20022;-67
2023/12/28 04:22:38;;;;;;;7.38;2.97;;;;;;;;;;5032949;28;20265;-67
2023/12/28 04:25:03;;;;;;;4.90;2.70;;;;;;;;;;5035492;28;20060;-65
2023/12/28 04:27:29;;;;;;;3.72;2.47;;;;;;;;;;5036608;28;20032;-64
2023/12/28 04:29:54;;;;;;;5.77;2.77;;;;;;;;;;5036986;28;20021;-64
2023/12/28 04:32:19;;;;;;;4.80;2.47;;;;;;;;;;5036666;28;20239;-64
2023/12/28 04:34:44;;;;;;;5.87;2.83;;;;;;;;;;5036665;28;20726;-64
2023/12/28 04:37:10;;;;;;;5.03;2.83;;;;;;;;;;5036587;28;20325;-64
2023/12/28 04:39:35;;;;;;;4.25;2.60;;;;;;;;;;5036512;28;20021;-64
2023/12/28 04:42:00;;;;;;;6.87;2.50;;;;;;;;;;5036431;28;20034;-64
2023/12/28 04:44:26;;;;;;;5.63;2.87;;;;;;;;;;5036555;28;20286;-64
2023/12/28 04:46:51;;;;;;;6.20;2.88;;;;;;;;;;5036638;28;20274;-64
2023/12/28 04:49:16;;;;;;;3.77;2.40;;;;;;;;;;5036343;28;20384;-64
2023/12/28 04:51:44;;;;;;;6.10;3.10;;;;;;;;;;5036525;28;20239;-65
2023/12/28 04:54:10;;;;;;;3.85;2.38;;;;;;;;;;5033807;28;20059;-64
2023/12/28 04:56:35;;;;;;;4.88;2.78;;;;;;;;;;5033365;28;20033;-64
2023/12/28 04:59:00;;;;;;;4.77;3.00;;;;;;;;;;5034430;28;20385;-64
2023/12/28 05:01:25;;;;;;;7.53;2.97;;;;;;;;;;5033482;28;20747;-65
2023/12/28 05:03:50;;;;;;;7.80;3.47;;;;;;;;;;5034290;28;20779;-64
2023/12/28 05:06:16;;;;;;;6.15;2.70;;;;;;;;;;5034331;28;20290;-65
2023/12/28 05:08:41;;;;;;;4.28;2.63;;;;;;;;;;5033387;28;20378;-65
2023/12/28 05:11:06;;;;;;;7.20;2.88;;;;;;;;;;5034403;28;20092;-64
2023/12/28 05:13:32;;;;;;;6.10;3.30;;;;;;;;;;5034057;28;20481;-65
2023/12/28 05:15:57;;;;;;;5.28;2.92;;;;;;;;;;5032186;28;20825;-64
2023/12/28 05:18:22;;;;;;;3.73;2.50;;;;;;;;;;5034208;28;20029;-64
2023/12/28 05:20:47;;;;;;;6.50;2.90;;;;;;;;;;5034044;28;20353;-65
2023/12/28 05:23:13;;;;;;;6.27;2.83;;;;;;;;;;5033337;28;20033;-65
2023/12/28 05:25:38;;;;;;;5.80;2.72;;;;;;;;;;5034605;28;20634;-64
2023/12/28 05:28:03;;;;;;;5.43;2.70;;;;;;;;;;5033625;28;20117;-65
2023/12/28 05:30:28;;;;;;;5.00;2.35;;;;;;;;;;5032912;28;20361;-64
2023/12/28 05:32:54;;;;;;;5.63;2.70;;;;;;;;;;5033774;28;20048;-64
2023/12/28 05:35:19;;;;;;;4.13;2.63;;;;;;;;;;5032314;28;20321;-67
2023/12/28 05:37:44;;;;;;;6.60;2.90;;;;;;;;;;5032652;28;20382;-67
2023/12/28 05:40:10;;;;;;;4.18;2.78;;;;;;;;;;5033084;28;20627;-67
2023/12/28 05:42:35;;;;;;;4.43;2.60;;;;;;;;;;5027660;28;20049;-67
2023/12/28 05:45:00;;;;;;;4.50;2.47;;;;;;;;;;5035572;28;20053;-67
2023/12/28 05:47:25;;;;;;;7.33;2.60;;;;;;;;;;5034822;28;20028;-67
2023/12/28 05:49:51;;;;;;;11.27;3.43;;;;;;;;;;5035487;28;20717;-67
2023/12/28 05:52:18;;;;;;;5.53;2.40;;;;;;;;;;5035125;28;20239;-67
2023/12/28 05:54:44;;;;;;;4.70;2.72;;;;;;;;;;5035381;28;20021;-68
2023/12/28 05:57:09;;;;;;;6.28;2.65;;;;;;;;;;5035106;28;20392;-67
2023/12/28 05:59:37;;;;;;;5.38;3.10;;;;;;;;;;5035324;28;20036;-67
2023/12/28 06:02:03;;;;;;;3.83;2.25;;;;;;;;;;5035059;28;20133;-67
2023/12/28 06:04:28;;;;;;;6.05;2.67;;;;;;;;;;5035245;28;20100;-68
2023/12/28 06:06:53;;;;;;;4.63;2.38;;;;;;;;;;5034979;28;20025;-68
2023/12/28 06:09:18;;;;;;;5.27;2.63;;;;;;;;;;5035429;28;20164;-67
2023/12/28 06:11:44;;;;;;;6.07;2.90;;;;;;;;;;5034845;28;20645;-67
2023/12/28 06:14:09;;;;;;;4.53;2.57;;;;;;;;;;5034744;28;20239;-68
2023/12/28 06:16:35;;;;;;;3.40;2.40;;;;;;;;;;5034621;28;20538;-68
2023/12/28 06:19:01;;;;;;;4.07;2.70;;;;;;;;;;5034929;28;20242;-67
2023/12/28 06:21:26;;;;;;;5.82;3.38;;;;;;;;;;5034731;28;20022;-67
2023/12/28 06:23:51;;;;;;;4.40;2.53;;;;;;;;;;5034888;28;20067;-67
2023/12/28 06:26:17;;;;;;;5.33;3.00;;;;;;;;;;5034552;28;20381;-68
2023/12/28 06:28:42;;;;;;;4.18;2.90;;;;;;;;;;5034691;28;20289;-67
2023/12/28 06:31:07;;;;;;;4.65;2.78;;;;;;;;;;5034754;28;20423;-67
2023/12/28 06:33:33;;;;;;;5.93;2.83;;;;;;;;;;5034702;28;20021;-67
2023/12/28 06:35:58;;;;;;;5.68;2.90;;;;;;;;;;5034622;28;20265;-67
2023/12/28 06:38:24;;;;;;;8.25;3.10;;;;;;;;;;5034602;28;20028;-67
2023/12/28 06:40:49;;;;;;;5.45;2.97;;;;;;;;;;5034346;28;20022;-68
2023/12/28 06:43:15;;;;;;;4.27;2.70;;;;;;;;;;5034517;28;20492;-67
2023/12/28 06:45:41;;;;;;;9.43;3.42;;;;;;;;;;5034221;28;20772;-64
2023/12/28 06:48:06;;;;;;;6.18;3.05;;;;;;;;;;5034088;28;20018;-65
2023/12/28 06:50:31;;;;;;;5.38;3.22;;;;;;;;;;5034350;28;20101;-64
2023/12/28 06:52:57;;;;;;;5.97;3.10;;;;;;;;;;5034104;28;20075;-64
2023/12/28 06:55:22;;;;;;;6.15;3.25;;;;;;;;;;5034261;28;20251;-65
2023/12/28 06:57:47;;;;;;;5.67;2.90;;;;;;;;;;5033968;28;20075;-64
2023/12/28 07:00:13;;;;;;;5.50;2.83;;;;;;;;;;5033910;28;20285;-65
2023/12/28 07:02:38;;;;;;;7.68;3.35;;;;;;;;;;5033891;28;20254;-65
2023/12/28 07:05:04;;;;;;;8.00;2.75;;;;;;;;;;5033798;28;20362;-64
2023/12/28 07:07:29;;;;;;;7.07;3.30;;;;;;;;;;5033749;28;20075;-65
2023/12/28 07:09:54;;;;;;;6.75;3.47;;;;;;;;;;5033745;28;20048;-65
2023/12/28 07:12:20;;;;;;;7.60;3.75;;;;;;;;;;5034043;28;20018;-65
2023/12/28 07:14:45;;;;;;;5.03;2.80;;;;;;;;;;5033682;28;20534;-64
2023/12/28 07:17:11;;;;;;;6.45;3.30;;;;;;;;;;5033690;28;20151;-65
2023/12/28 07:19:37;;;;;;;7.78;3.10;;;;;;;;;;5033574;28;20028;-64
2023/12/28 07:22:03;;;;;;;7.93;3.03;;;;;;;;;;5033819;28;20053;-65
2023/12/28 07:24:29;;;;;;;8.25;3.60;;;;;;;;;;5033626;28;20087;-64
2023/12/28 07:26:54;;;;;;;6.00;3.40;;;;;;;;;;5033691;28;20022;-64
2023/12/28 07:29:19;;;;;;;8.18;3.13;;;;;;;;;;5033568;28;20497;-65
2023/12/28 07:31:44;;;;;;;5.33;3.37;;;;;;;;;;5033462;28;20029;-64
2023/12/28 07:34:10;;;;;;;4.63;2.77;;;;;;;;;;5033444;28;20025;-64
2023/12/28 07:36:35;;;;;;;6.32;3.35;;;;;;;;;;5033343;28;20250;-65
2023/12/28 07:39:00;;;;;;;4.33;3.23;;;;;;;;;;5033619;28;20021;-64
2023/12/28 07:41:25;;;;;;;4.50;2.97;;;;;;;;;;5033327;28;20239;-64
2023/12/28 07:43:50;;;;;;;10.30;3.33;;;;;;;;;;5032078;28;20029;-64
2023/12/28 07:46:16;;;;;;;7.37;2.83;;;;;;;;;;5033355;28;20257;-65
2023/12/28 07:48:41;;;;;;;3.67;2.60;;;;;;;;;;5033172;28;20274;-64
2023/12/28 07:51:06;;;;;;;8.43;3.28;;;;;;;;;;5033184;28;20326;-64
2023/12/28 07:53:32;;;;;;;4.20;3.00;;;;;;;;;;5033276;28;20022;-64
2023/12/28 07:55:57;;;;;;;5.25;3.17;;;;;;;;;;5033305;28;20036;-65
2023/12/28 07:58:22;;;;;;;6.90;3.03;;;;;;;;;;5033273;28;20017;-64
2023/12/28 08:00:48;;;;;;;7.03;3.00;;;;;;;;;;5037022;28;20253;-64
2023/12/28 08:03:15;;;;;;;8.02;3.28;;;;;;;;;;5037263;28;20665;-64
2023/12/28 08:05:40;;;;;;;8.90;3.30;;;;;;;;;;5037240;28;20483;-64
2023/12/28 08:08:06;;;;;;;6.70;2.78;;;;;;;;;;5037157;28;20096;-64
2023/12/28 08:10:31;;;;;;;4.40;2.90;;;;;;;;;;5037419;28;20041;-65
2023/12/28 08:15:59;;;;;;;5.80;2.83;;;;;;;;;;5035920;28;20044;-65
2023/12/28 08:18:24;;;;;;;8.88;3.42;;;;;;;;;;5036994;28;20033;-65
2023/12/28 08:20:50;;;;;;;5.87;2.67;;;;;;;;;;5036948;28;20430;-64
2023/12/28 08:23:15;;;;;;;6.30;3.03;;;;;;;;;;5037165;28;20075;-64
2023/12/28 08:25:40;;;;;;;6.97;2.90;;;;;;;;;;5037134;28;20389;-65
2023/12/28 08:28:06;;;;;;;4.77;2.87;;;;;;;;;;5036726;28;20013;-65
2023/12/28 08:30:31;;;;;;;7.77;3.07;;;;;;;;;;5036824;28;20247;-64
2023/12/28 08:32:56;;;;;;;4.77;3.00;;;;;;;;;;5036792;28;20431;-64
2023/12/28 08:35:21;;;;;;;4.80;2.77;;;;;;;;;;5036750;28;20029;-65
2023/12/28 08:37:46;;;;;;;7.73;3.20;;;;;;;;;;5036629;28;20247;-65
2023/12/28 08:40:12;;;;;;;3.80;2.73;;;;;;;;;;5036568;28;20159;-64
2023/12/28 08:42:37;;;;;;;4.47;3.03;;;;;;;;;;5036546;28;20025;-64
2023/12/28 08:45:02;;;;;;;7.07;3.90;;;;;;;;;;5036491;28;20470;-64
2023/12/28 08:47:27;;;;;;;5.38;2.50;;;;;;;;;;5035119;28;20275;-65
2023/12/28 08:49:52;;;;;;;5.87;3.07;;;;;;;;;;5036400;28;20492;-65
2023/12/28 08:52:18;;;;;;;8.77;3.03;;;;;;;;;;5036348;28;20029;-65
2023/12/28 08:54:43;;;;;;;4.90;3.00;;;;;;;;;;5036594;28;20072;-65
2023/12/28 08:57:09;;;;;;;6.47;3.35;;;;;;;;;;5036507;28;20477;-64
2023/12/28 08:59:37;;;;;;;8.97;3.13;;;;;;;;;;5036254;28;20025;-65
2023/12/28 09:02:02;;;;;;;5.22;2.92;;;;;;;;;;5036179;28;20028;-65
2023/12/28 09:04:28;;;;;;;6.50;3.78;;;;;;;;;;5036177;28;20017;-65
2023/12/28 09:06:53;;;;;;;6.20;2.95;;;;;;;;;;5036405;28;20148;-65
2023/12/28 09:09:18;;;;;;;6.23;3.03;;;;;;;;;;5036016;28;20021;-65
2023/12/28 09:11:43;;;;;;;5.00;3.08;;;;;;;;;;5036132;28;20245;-65
2023/12/28 09:14:09;;;;;;;10.10;3.57;;;;;;;;;;5035892;28;20021;-65
2023/12/28 09:16:35;;;;;;;8.00;3.50;;;;;;;;;;5035804;28;20037;-65
2023/12/28 09:19:00;;;;;;;7.93;3.58;;;;;;;;;;5036112;28;20020;-64
2023/12/28 09:21:26;;;;;;;8.63;3.20;;;;;;;;;;5035856;28;20021;-65
2023/12/28 09:23:51;;;;;;;5.93;3.10;;;;;;;;;;5036045;28;20025;-64
2023/12/28 09:26:16;;;;;;;6.70;2.97;;;;;;;;;;5035706;28;20116;-65
2023/12/28 09:28:43;;;;;;;6.33;2.83;;;;;;;;;;5035633;28;20267;-64
2023/12/28 09:31:08;;;;;;;5.18;3.30;;;;;;;;;;5035650;28;20255;-64
2023/12/28 09:33:33;;;;;;;5.50;2.83;;;;;;;;;;5035599;28;20026;-64
2023/12/28 09:35:59;;;;;;;7.13;3.00;;;;;;;;;;5035482;28;20029;-65
2023/12/28 09:38:26;;;;;;;7.95;3.03;;;;;;;;;;5035436;28;20300;-65
2023/12/28 09:40:52;;;;;;;8.05;3.17;;;;;;;;;;5035719;28;20508;-65
2023/12/28 09:43:27;;;;;;;6.47;3.10;;;;;;;;;;5035699;28;20029;-65
2023/12/28 09:45:52;;;;;;;6.38;3.35;;;;;;;;;;5035460;28;20473;-65
2023/12/28 09:48:19;;;;;;;5.00;2.67;;;;;;;;;;5035254;28;20078;-64
2023/12/28 09:50:45;;;;;;;6.85;3.47;;;;;;;;;;5035300;28;20064;-64
2023/12/28 09:53:10;;;;;;;4.78;3.10;;;;;;;;;;5035264;28;20052;-65
2023/12/28 09:55:35;;;;;;;6.83;2.90;;;;;;;;;;5035179;28;20029;-65
2023/12/28 09:58:02;;;;;;;11.27;3.60;;;;;;;;;;5035261;28;20021;-64
2023/12/28 10:00:27;;;;;;;5.32;2.70;;;;;;;;;;5035086;28;20053;-65
2023/12/28 10:02:52;;;;;;;4.80;2.80;;;;;;;;;;5035137;28;20114;-64
2023/12/28 10:05:17;;;;;;;4.40;2.50;;;;;;;;;;5035021;28;20083;-65
2023/12/28 10:07:43;;;;;;;8.17;2.53;;;;;;;;;;5035111;28;20469;-64
2023/12/28 10:10:09;;;;;;;4.93;2.75;;;;;;;;;;5034898;28;20017;-65
2023/12/28 10:12:34;;;;;;;4.28;2.28;;;;;;;;;;5035100;28;20041;-65
2023/12/28 10:15:00;;;;;;;4.60;2.45;;;;;;;;;;5034683;28;20048;-65
2023/12/28 10:17:25;;;;;;;4.10;2.67;;;;;;;;;;5035021;28;20030;-64
2023/12/28 10:19:50;;;;;;;3.97;2.40;;;;;;;;;;5035025;28;20384;-64
2023/12/28 10:22:15;;;;;;;5.20;2.70;;;;;;;;;;5034089;28;20025;-64
2023/12/28 10:24:42;;;;;;;4.67;2.40;;;;;;;;;;5034676;28;20021;-64
2023/12/28 10:27:07;;;;;;;3.80;2.40;;;;;;;;;;5034505;28;20029;-64
2023/12/28 10:29:33;;;;;;;3.87;2.40;;;;;;;;;;5034511;28;20526;-64
2023/12/28 10:31:58;;;;;;;3.28;2.40;;;;;;;;;;5034451;28;20026;-64
2023/12/28 10:34:25;;;;;;;3.63;2.30;;;;;;;;;;5034487;28;20092;-64
2023/12/28 10:36:51;;;;;;;4.45;2.35;;;;;;;;;;5034664;28;20239;-65
2023/12/28 10:39:19;;;;;;;3.47;2.33;;;;;;;;;;5034359;28;20384;-64
2023/12/28 10:41:49;;;;;;;7.38;2.42;;;;;;;;;;5034251;28;20025;-64
2023/12/28 10:44:15;;;;;;;4.70;2.50;;;;;;;;;;5034534;28;20036;-64
2023/12/28 10:46:42;;;;;;;4.55;2.60;;;;;;;;;;5034118;28;20485;-64
2023/12/28 10:49:14;;;;;;;7.30;2.70;;;;;;;;;;5034165;28;20096;-64
2023/12/28 10:51:43;;;;;;;2.85;2.25;;;;;;;;;;5034201;28;20028;-65
2023/12/28 10:54:31;;;;;;;3.20;2.50;;;;;;;;;;5034140;28;20018;-64
2023/12/28 10:57:05;;;;;;;3.63;2.67;;;;;;;;;;5034070;28;20374;-64
2023/12/28 10:59:44;;;;;;;9.07;2.78;;;;;;;;;;5034048;28;20100;-65
2023/12/28 11:02:11;;;;;;;6.07;2.83;;;;;;;;;;5033951;28;20030;-64
2023/12/28 11:04:46;;;;;;;4.68;2.63;;;;;;;;;;5033910;28;20144;-65
2023/12/28 11:07:12;;;;;;;4.88;2.63;;;;;;;;;;5033788;28;20017;-64
2023/12/28 11:09:38;;;;;;;4.22;2.40;;;;;;;;;;5033854;28;20071;-65
2023/12/28 11:12:06;;;;;;;4.88;2.25;;;;;;;;;;5033741;28;20025;-64
2023/12/28 11:14:32;;;;;;;5.22;2.42;;;;;;;;;;5033710;28;20017;-64
2023/12/28 11:16:59;;;;;;;3.25;2.28;;;;;;;;;;5033513;28;20080;-64
2023/12/28 11:19:25;;;;;;;7.35;3.40;;;;;;;;;;5033927;28;20492;-64
2023/12/28 11:21:51;;;;;;;5.28;2.30;;;;;;;;;;5033852;28;20021;-65
2023/12/28 11:24:16;;;;;;;7.28;2.50;;;;;;;;;;5033542;28;20029;-64
2023/12/28 11:26:42;;;;;;;3.20;2.05;;;;;;;;;;5033799;28;20029;-64
2023/12/28 11:29:07;;;;;;;4.55;2.45;;;;;;;;;;5033478;28;20014;-64
2023/12/28 11:31:36;;;;;;;4.80;2.57;;;;;;;;;;5033490;28;20024;-64
2023/12/28 11:34:01;;;;;;;6.03;2.10;;;;;;;;;;5032586;28;20607;-64
2023/12/28 11:36:32;;;;;;;3.85;2.30;;;;;;;;;;5033457;28;20021;-64
2023/12/28 11:39:00;;;;;;;6.68;2.60;;;;;;;;;;5033420;28;20095;-64
2023/12/28 11:41:26;;;;;;;4.70;2.53;;;;;;;;;;5033410;28;20040;-64
2023/12/28 11:43:52;;;;;;;3.20;2.05;;;;;;;;;;5033265;28;20544;-64
2023/12/28 11:46:17;;;;;;;4.50;2.38;;;;;;;;;;5033562;28;20056;-65
2023/12/28 11:48:42;;;;;;;2.93;2.20;;;;;;;;;;5033465;28;20018;-64
2023/12/28 11:51:08;;;;;;;3.23;2.10;;;;;;;;;;5033292;28;20067;-64
2023/12/28 11:53:33;;;;;;;2.93;2.20;;;;;;;;;;5033214;28;20231;-64
2023/12/28 11:56:02;;;;;;;7.00;2.13;;;;;;;;;;5033263;28;20592;-64
2023/12/28 11:58:27;;;;;;;3.55;2.08;;;;;;;;;;5033438;28;20040;-64
2023/12/28 12:00:53;;;;;;;2.45;2.00;;;;;;;;;;5033235;28;20021;-65
2023/12/28 12:03:19;;;;;;;4.57;1.75;;;;;;;;;;5033167;28;20108;-65
2023/12/28 12:05:44;;;;;;;4.22;2.67;;;;;;;;;;5033381;28;20113;-64
2023/12/28 12:08:14;;;;;;;3.00;2.17;;;;;;;;;;5032969;28;20100;-65
2023/12/28 12:10:42;;;;;;;4.90;2.35;;;;;;;;;;5033372;28;20163;-65
2023/12/28 12:13:08;;;;;;;5.05;2.17;;;;;;;;;;5032977;28;20040;-64
2023/12/28 12:15:33;;;;;;;3.70;2.20;;;;;;;;;;5032977;28;20083;-64
2023/12/28 12:17:58;;;;;;;3.53;1.70;;;;;;;;;;5033039;28;20546;-64
2023/12/28 12:20:24;;;;;;;3.80;1.95;;;;;;;;;;5033290;28;20040;-65
2023/12/28 12:22:49;;;;;;;3.78;2.13;;;;;;;;;;5032977;28;20358;-64
2023/12/28 12:25:19;;;;;;;3.22;1.90;;;;;;;;;;5033207;28;20048;-64
2023/12/28 12:27:44;;;;;;;4.25;2.17;;;;;;;;;;5033105;28;20037;-64
2023/12/28 12:30:10;;;;;;;3.22;2.03;;;;;;;;;;5032929;28;20381;-64
2023/12/28 12:32:39;;;;;;;4.90;2.45;;;;;;;;;;5032896;28;20014;-64
2023/12/28 12:35:04;;;;;;;6.80;2.28;;;;;;;;;;5033185;28;20057;-65
2023/12/28 12:37:30;;;;;;;4.03;2.35;;;;;;;;;;5033069;28;20024;-65
2023/12/28 12:39:55;;;;;;;4.07;2.70;;;;;;;;;;5032875;28;20053;-64
2023/12/28 12:42:20;;;;;;;4.70;2.27;;;;;;;;;;5033025;28;20274;-64
2023/12/28 12:44:45;;;;;;;3.57;2.13;;;;;;;;;;5033108;28;20286;-65
2023/12/28 12:47:12;;;;;;;4.32;2.17;;;;;;;;;;5036405;28;20298;-64
2023/12/28 12:49:37;;;;;;;2.67;1.83;;;;;;;;;;5036442;28;20024;-65
2023/12/28 12:52:03;;;;;;;5.33;2.27;;;;;;;;;;5036462;28;20456;-64
2023/12/28 12:54:28;;;;;;;4.53;2.30;;;;;;;;;;5036454;28;20017;-64
2023/12/28 12:56:54;;;;;;;3.20;2.10;;;;;;;;;;5036281;28;20469;-64
2023/12/28 12:59:19;;;;;;;4.18;2.15;;;;;;;;;;5036239;28;20619;-64
2023/12/28 13:01:48;;;;;;;2.85;2.00;;;;;;;;;;5036175;28;20100;-64
2023/12/28 13:04:14;;;;;;;5.75;2.10;;;;;;;;;;5036179;28;20018;-64
2023/12/28 13:06:39;;;;;;;3.35;2.33;;;;;;;;;;5035963;28;20017;-64
2023/12/28 13:09:06;;;;;;;3.60;2.20;;;;;;;;;;5036343;28;20028;-65
2023/12/28 13:11:32;;;;;;;3.00;1.90;;;;;;;;;;5036233;28;20373;-65
2023/12/28 13:13:58;;;;;;;8.43;2.25;;;;;;;;;;5035826;28;20021;-64
2023/12/28 13:16:23;;;;;;;4.07;2.33;;;;;;;;;;5035821;28;20065;-64
2023/12/28 13:18:48;;;;;;;3.78;2.30;;;;;;;;;;5035903;28;20022;-64
2023/12/28 13:21:14;;;;;;;4.78;2.30;;;;;;;;;;5035858;28;20532;-65
2023/12/28 13:23:39;;;;;;;3.93;2.23;;;;;;;;;;5035805;28;20022;-64
2023/12/28 13:26:04;;;;;;;3.53;2.30;;;;;;;;;;5035775;28;20477;-65
2023/12/28 13:28:29;;;;;;;6.07;2.27;;;;;;;;;;5035593;28;20270;-64
2023/12/28 13:30:55;;;;;;;4.00;2.13;;;;;;;;;;5035665;28;20243;-64
2023/12/28 13:33:21;;;;;;;2.70;1.90;;;;;;;;;;5035945;28;20493;-64
2023/12/28 13:35:46;;;;;;;4.55;2.30;;;;;;;;;;5035533;28;20009;-65
2023/12/28 13:38:11;;;;;;;3.10;2.40;;;;;;;;;;5035594;28;20028;-65
2023/12/28 13:40:37;;;;;;;5.00;2.70;;;;;;;;;;5035465;28;20243;-64
2023/12/28 13:43:02;;;;;;;7.60;2.07;;;;;;;;;;5035504;28;20026;-65
2023/12/28 13:45:27;;;;;;;5.30;2.35;;;;;;;;;;5035508;28;20251;-67
2023/12/28 13:47:52;;;;;;;3.67;2.40;;;;;;;;;;5035311;28;20232;-67
2023/12/28 13:50:19;;;;;;;3.55;2.17;;;;;;;;;;5035269;28;20389;-67
2023/12/28 13:52:44;;;;;;;4.45;2.25;;;;;;;;;;5035269;28;20052;-67
2023/12/28 13:55:11;;;;;;;2.43;1.80;;;;;;;;;;5035252;28;20045;-67
2023/12/28 13:57:36;;;;;;;4.45;2.30;;;;;;;;;;5034495;28;20722;-67
2023/12/28 14:00:02;;;;;;;4.68;2.20;;;;;;;;;;5035404;28;20224;-67
2023/12/28 14:02:27;;;;;;;5.45;2.20;;;;;;;;;;5035063;28;20500;-68
2023/12/28 14:04:55;;;;;;;4.80;2.10;;;;;;;;;;5035149;28;20057;-68
2023/12/28 14:07:21;;;;;;;9.27;2.55;;;;;;;;;;5035220;28;20766;-67
2023/12/28 14:09:46;;;;;;;4.03;2.70;;;;;;;;;;5035007;28;20079;-67
2023/12/28 14:12:11;;;;;;;5.00;2.47;;;;;;;;;;5034919;28;20309;-67
2023/12/28 14:14:36;;;;;;;5.00;2.47;;;;;;;;;;5034713;28;20255;-67
2023/12/28 14:17:04;;;;;;;4.65;2.38;;;;;;;;;;5034618;28;20290;-68
2023/12/28 14:19:29;;;;;;;3.63;2.20;;;;;;;;;;5034699;28;20053;-67
2023/12/28 14:21:55;;;;;;;3.70;2.38;;;;;;;;;;5034783;28;20041;-68
2023/12/28 14:24:20;;;;;;;3.30;1.92;;;;;;;;;;5034703;28;20024;-67
2023/12/28 14:26:45;;;;;;;4.30;2.20;;;;;;;;;;5034549;28;20071;-67
2023/12/28 14:29:11;;;;;;;3.22;2.05;;;;;;;;;;5034592;28;20044;-67
2023/12/28 14:31:36;;;;;;;5.90;2.40;;;;;;;;;;5034485;28;20108;-68
2023/12/28 14:34:02;;;;;;;5.60;2.75;;;;;;;;;;5034678;28;20021;-67
2023/12/28 14:36:28;;;;;;;4.30;2.40;;;;;;;;;;5034488;28;20152;-67
2023/12/28 14:38:53;;;;;;;5.95;2.28;;;;;;;;;;5034686;28;20517;-67